sensor_id;sensor_type;location;lat;lon;timestamp;P1;durP1;ratioP1;P2;durP2;ratioP2
77324;SDS011;66387;53.440;10.390;2023-07-08T00:00:10;5.20;;;3.57;;
77324;SDS011;66387;53.440;10.390;2023-07-08T00:02:37;3.65;;;3.30;;
77324;SDS011;66387;53.440;10.390;2023-07-08T00:05:02;4.87;;;4.43;;
77324;SDS011;66387;53.440;10.390;2023-07-08T00:07:28;6.47;;;3.67;;
77324;SDS011;66387;53.440;10.390;2023-07-08T00:09:53;4.80;;;4.20;;
77324;SDS011;66387;53.440;10.390;2023-07-08T00:12:18;6.63;;;4.37;;
77324;SDS011;66387;53.440;10.390;2023-07-08T00:14:44;5.00;;;4.07;;
77324;SDS011;66387;53.440;10.390;2023-07-08T00:17:12;5.17;;;3.80;;
77324;SDS011;66387;53.440;10.390;2023-07-08T00:19:38;5.40;;;4.40;;
77324;SDS011;66387;53.440;10.390;2023-07-08T00:22:07;6.10;;;4.25;;
77324;SDS011;66387;53.440;10.390;2023-07-08T00:24:36;5.93;;;3.97;;
77324;SDS011;66387;53.440;10.390;2023-07-08T00:27:01;4.40;;;3.50;;
77324;SDS011;66387;53.440;10.390;2023-07-08T00:29:26;6.03;;;4.37;;
77324;SDS011;66387;53.440;10.390;2023-07-08T00:31:51;4.67;;;3.67;;
77324;SDS011;66387;53.440;10.390;2023-07-08T00:34:17;4.50;;;3.93;;
77324;SDS011;66387;53.440;10.390;2023-07-08T00:36:42;6.93;;;3.93;;
77324;SDS011;66387;53.440;10.390;2023-07-08T00:39:12;6.10;;;3.70;;
77324;SDS011;66387;53.440;10.390;2023-07-08T00:41:39;5.78;;;3.40;;
77324;SDS011;66387;53.440;10.390;2023-07-08T00:44:08;5.18;;;3.80;;
77324;SDS011;66387;53.440;10.390;2023-07-08T00:49:39;5.35;;;3.35;;
77324;SDS011;66387;53.440;10.390;2023-07-08T00:54:56;5.95;;;3.65;;
77324;SDS011;66387;53.440;10.390;2023-07-08T00:57:28;7.57;;;3.67;;
77324;SDS011;66387;53.440;10.390;2023-07-08T01:02:34;6.95;;;4.05;;
77324;SDS011;66387;53.440;10.390;2023-07-08T01:05:08;5.88;;;3.83;;
77324;SDS011;66387;53.440;10.390;2023-07-08T01:07:36;6.07;;;4.57;;
77324;SDS011;66387;53.440;10.390;2023-07-08T01:10:06;7.10;;;4.20;;
77324;SDS011;66387;53.440;10.390;2023-07-08T01:12:38;5.07;;;4.03;;
77324;SDS011;66387;53.440;10.390;2023-07-08T01:15:07;7.15;;;4.40;;
77324;SDS011;66387;53.440;10.390;2023-07-08T01:17:33;6.07;;;5.15;;
77324;SDS011;66387;53.440;10.390;2023-07-08T01:20:01;5.30;;;3.97;;
77324;SDS011;66387;53.440;10.390;2023-07-08T01:22:36;5.13;;;4.18;;
77324;SDS011;66387;53.440;10.390;2023-07-08T01:25:02;4.50;;;3.80;;
77324;SDS011;66387;53.440;10.390;2023-07-08T01:27:29;4.25;;;3.53;;
77324;SDS011;66387;53.440;10.390;2023-07-08T01:29:59;4.45;;;3.58;;
77324;SDS011;66387;53.440;10.390;2023-07-08T01:32:26;5.25;;;4.28;;
77324;SDS011;66387;53.440;10.390;2023-07-08T01:34:52;5.60;;;4.15;;
77324;SDS011;66387;53.440;10.390;2023-07-08T01:37:35;6.47;;;4.28;;
77324;SDS011;66387;53.440;10.390;2023-07-08T01:42:44;4.97;;;3.53;;
77324;SDS011;66387;53.440;10.390;2023-07-08T01:45:10;5.63;;;5.07;;
77324;SDS011;66387;53.440;10.390;2023-07-08T01:47:37;6.13;;;4.28;;
77324;SDS011;66387;53.440;10.390;2023-07-08T01:50:04;4.53;;;3.70;;
77324;SDS011;66387;53.440;10.390;2023-07-08T01:52:30;7.05;;;4.43;;
77324;SDS011;66387;53.440;10.390;2023-07-08T01:54:55;5.40;;;3.77;;
77324;SDS011;66387;53.440;10.390;2023-07-08T01:57:20;9.05;;;4.55;;
77324;SDS011;66387;53.440;10.390;2023-07-08T01:59:46;5.87;;;3.67;;
77324;SDS011;66387;53.440;10.390;2023-07-08T02:02:11;9.80;;;4.63;;
77324;SDS011;66387;53.440;10.390;2023-07-08T02:04:36;4.77;;;3.87;;
77324;SDS011;66387;53.440;10.390;2023-07-08T02:07:01;6.83;;;4.43;;
77324;SDS011;66387;53.440;10.390;2023-07-08T02:09:27;8.35;;;4.15;;
77324;SDS011;66387;53.440;10.390;2023-07-08T02:11:53;5.38;;;4.00;;
77324;SDS011;66387;53.440;10.390;2023-07-08T02:14:18;5.30;;;4.10;;
77324;SDS011;66387;53.440;10.390;2023-07-08T02:16:44;4.43;;;4.03;;
77324;SDS011;66387;53.440;10.390;2023-07-08T02:19:12;4.43;;;3.57;;
77324;SDS011;66387;53.440;10.390;2023-07-08T02:21:38;5.15;;;4.03;;
77324;SDS011;66387;53.440;10.390;2023-07-08T02:24:04;7.28;;;3.83;;
77324;SDS011;66387;53.440;10.390;2023-07-08T02:26:29;4.82;;;3.60;;
77324;SDS011;66387;53.440;10.390;2023-07-08T02:28:57;4.72;;;3.50;;
77324;SDS011;66387;53.440;10.390;2023-07-08T02:31:22;5.35;;;3.90;;
77324;SDS011;66387;53.440;10.390;2023-07-08T02:33:49;5.80;;;3.85;;
77324;SDS011;66387;53.440;10.390;2023-07-08T02:36:15;5.60;;;4.00;;
77324;SDS011;66387;53.440;10.390;2023-07-08T02:38:40;4.60;;;4.13;;
77324;SDS011;66387;53.440;10.390;2023-07-08T02:41:05;5.83;;;3.80;;
77324;SDS011;66387;53.440;10.390;2023-07-08T02:43:31;4.67;;;4.23;;
77324;SDS011;66387;53.440;10.390;2023-07-08T02:45:56;6.03;;;3.80;;
77324;SDS011;66387;53.440;10.390;2023-07-08T02:48:21;5.57;;;4.00;;
77324;SDS011;66387;53.440;10.390;2023-07-08T02:50:46;6.83;;;3.90;;
77324;SDS011;66387;53.440;10.390;2023-07-08T02:53:12;4.97;;;4.13;;
77324;SDS011;66387;53.440;10.390;2023-07-08T02:55:38;5.50;;;4.32;;
77324;SDS011;66387;53.440;10.390;2023-07-08T02:58:03;4.95;;;3.67;;
77324;SDS011;66387;53.440;10.390;2023-07-08T03:00:29;4.93;;;3.70;;
77324;SDS011;66387;53.440;10.390;2023-07-08T03:02:54;6.00;;;4.20;;
77324;SDS011;66387;53.440;10.390;2023-07-08T03:05:19;6.43;;;3.80;;
77324;SDS011;66387;53.440;10.390;2023-07-08T03:07:45;7.50;;;4.38;;
77324;SDS011;66387;53.440;10.390;2023-07-08T03:10:10;5.30;;;3.80;;
77324;SDS011;66387;53.440;10.390;2023-07-08T03:12:35;4.53;;;3.93;;
77324;SDS011;66387;53.440;10.390;2023-07-08T03:15:00;5.10;;;4.00;;
77324;SDS011;66387;53.440;10.390;2023-07-08T03:17:26;4.37;;;3.73;;
77324;SDS011;66387;53.440;10.390;2023-07-08T03:19:51;4.93;;;3.40;;
77324;SDS011;66387;53.440;10.390;2023-07-08T03:22:16;5.13;;;3.80;;
77324;SDS011;66387;53.440;10.390;2023-07-08T03:24:42;3.90;;;3.60;;
77324;SDS011;66387;53.440;10.390;2023-07-08T03:27:11;4.30;;;3.50;;
77324;SDS011;66387;53.440;10.390;2023-07-08T03:29:37;5.75;;;3.63;;
77324;SDS011;66387;53.440;10.390;2023-07-08T03:32:03;5.35;;;3.92;;
77324;SDS011;66387;53.440;10.390;2023-07-08T03:34:28;5.97;;;4.85;;
77324;SDS011;66387;53.440;10.390;2023-07-08T03:36:53;6.40;;;4.10;;
77324;SDS011;66387;53.440;10.390;2023-07-08T03:39:21;4.77;;;3.73;;
77324;SDS011;66387;53.440;10.390;2023-07-08T03:41:49;4.88;;;3.88;;
77324;SDS011;66387;53.440;10.390;2023-07-08T03:44:15;5.78;;;4.07;;
77324;SDS011;66387;53.440;10.390;2023-07-08T03:46:41;5.00;;;4.15;;
77324;SDS011;66387;53.440;10.390;2023-07-08T03:49:08;8.63;;;5.72;;
77324;SDS011;66387;53.440;10.390;2023-07-08T03:51:36;5.97;;;4.55;;
77324;SDS011;66387;53.440;10.390;2023-07-08T03:54:03;4.93;;;3.97;;
77324;SDS011;66387;53.440;10.390;2023-07-08T03:56:30;4.72;;;4.30;;
77324;SDS011;66387;53.440;10.390;2023-07-08T03:58:55;4.85;;;3.65;;
77324;SDS011;66387;53.440;10.390;2023-07-08T04:01:21;6.67;;;4.43;;
77324;SDS011;66387;53.440;10.390;2023-07-08T04:03:49;6.05;;;4.00;;
77324;SDS011;66387;53.440;10.390;2023-07-08T04:06:16;5.50;;;3.80;;
77324;SDS011;66387;53.440;10.390;2023-07-08T04:08:41;4.73;;;4.17;;
77324;SDS011;66387;53.440;10.390;2023-07-08T04:11:08;4.35;;;3.95;;
77324;SDS011;66387;53.440;10.390;2023-07-08T04:13:36;4.63;;;4.13;;
77324;SDS011;66387;53.440;10.390;2023-07-08T04:16:02;5.17;;;4.30;;
77324;SDS011;66387;53.440;10.390;2023-07-08T04:18:30;4.10;;;3.70;;
77324;SDS011;66387;53.440;10.390;2023-07-08T04:20:55;6.32;;;4.32;;
77324;SDS011;66387;53.440;10.390;2023-07-08T04:23:21;8.80;;;4.45;;
77324;SDS011;66387;53.440;10.390;2023-07-08T04:25:48;6.95;;;4.15;;
77324;SDS011;66387;53.440;10.390;2023-07-08T04:28:14;8.65;;;4.22;;
77324;SDS011;66387;53.440;10.390;2023-07-08T04:30:41;5.68;;;4.68;;
77324;SDS011;66387;53.440;10.390;2023-07-08T04:33:11;5.95;;;4.10;;
77324;SDS011;66387;53.440;10.390;2023-07-08T04:35:37;4.78;;;3.83;;
77324;SDS011;66387;53.440;10.390;2023-07-08T04:38:06;6.63;;;3.80;;
77324;SDS011;66387;53.440;10.390;2023-07-08T04:40:36;4.95;;;3.83;;
77324;SDS011;66387;53.440;10.390;2023-07-08T04:43:05;8.27;;;4.45;;
77324;SDS011;66387;53.440;10.390;2023-07-08T04:45:31;5.97;;;3.88;;
77324;SDS011;66387;53.440;10.390;2023-07-08T04:47:56;4.60;;;3.78;;
77324;SDS011;66387;53.440;10.390;2023-07-08T04:50:21;4.67;;;4.00;;
77324;SDS011;66387;53.440;10.390;2023-07-08T04:52:47;5.38;;;4.13;;
77324;SDS011;66387;53.440;10.390;2023-07-08T04:55:12;6.10;;;4.40;;
77324;SDS011;66387;53.440;10.390;2023-07-08T04:57:38;4.03;;;3.58;;
77324;SDS011;66387;53.440;10.390;2023-07-08T05:00:04;4.55;;;3.90;;
77324;SDS011;66387;53.440;10.390;2023-07-08T05:02:32;6.15;;;3.58;;
77324;SDS011;66387;53.440;10.390;2023-07-08T05:04:58;5.47;;;3.80;;
77324;SDS011;66387;53.440;10.390;2023-07-08T05:07:23;5.17;;;3.90;;
77324;SDS011;66387;53.440;10.390;2023-07-08T05:09:48;5.17;;;4.10;;
77324;SDS011;66387;53.440;10.390;2023-07-08T05:12:13;7.40;;;4.37;;
77324;SDS011;66387;53.440;10.390;2023-07-08T05:14:39;4.40;;;3.80;;
77324;SDS011;66387;53.440;10.390;2023-07-08T05:17:04;5.93;;;4.07;;
77324;SDS011;66387;53.440;10.390;2023-07-08T05:19:30;5.38;;;4.05;;
77324;SDS011;66387;53.440;10.390;2023-07-08T05:21:55;5.77;;;3.57;;
77324;SDS011;66387;53.440;10.390;2023-07-08T05:24:20;5.67;;;4.03;;
77324;SDS011;66387;53.440;10.390;2023-07-08T05:26:45;5.60;;;3.60;;
77324;SDS011;66387;53.440;10.390;2023-07-08T05:29:11;4.47;;;3.57;;
77324;SDS011;66387;53.440;10.390;2023-07-08T05:31:36;6.27;;;4.47;;
77324;SDS011;66387;53.440;10.390;2023-07-08T05:34:01;4.50;;;4.10;;
77324;SDS011;66387;53.440;10.390;2023-07-08T05:36:26;4.67;;;3.63;;
77324;SDS011;66387;53.440;10.390;2023-07-08T05:38:52;5.15;;;3.85;;
77324;SDS011;66387;53.440;10.390;2023-07-08T05:41:17;5.83;;;4.60;;
77324;SDS011;66387;53.440;10.390;2023-07-08T05:43:42;4.47;;;3.10;;
77324;SDS011;66387;53.440;10.390;2023-07-08T05:46:08;4.80;;;4.13;;
77324;SDS011;66387;53.440;10.390;2023-07-08T05:48:33;6.28;;;4.05;;
77324;SDS011;66387;53.440;10.390;2023-07-08T05:50:58;6.37;;;3.70;;
77324;SDS011;66387;53.440;10.390;2023-07-08T05:53:24;4.77;;;3.67;;
77324;SDS011;66387;53.440;10.390;2023-07-08T05:55:49;7.93;;;3.80;;
77324;SDS011;66387;53.440;10.390;2023-07-08T05:58:15;5.55;;;3.25;;
77324;SDS011;66387;53.440;10.390;2023-07-08T06:00:41;4.07;;;3.70;;
77324;SDS011;66387;53.440;10.390;2023-07-08T06:03:07;4.32;;;3.50;;
77324;SDS011;66387;53.440;10.390;2023-07-08T06:05:32;3.45;;;2.83;;
77324;SDS011;66387;53.440;10.390;2023-07-08T06:07:58;5.35;;;4.55;;
77324;SDS011;66387;53.440;10.390;2023-07-08T06:10:23;5.27;;;3.13;;
77324;SDS011;66387;53.440;10.390;2023-07-08T06:12:49;4.63;;;3.80;;
77324;SDS011;66387;53.440;10.390;2023-07-08T06:15:15;4.38;;;3.00;;
77324;SDS011;66387;53.440;10.390;2023-07-08T06:17:40;3.30;;;3.00;;
77324;SDS011;66387;53.440;10.390;2023-07-08T06:20:05;3.83;;;3.27;;
77324;SDS011;66387;53.440;10.390;2023-07-08T06:22:31;4.72;;;3.67;;
77324;SDS011;66387;53.440;10.390;2023-07-08T06:24:57;3.97;;;2.80;;
77324;SDS011;66387;53.440;10.390;2023-07-08T06:27:22;4.70;;;3.67;;
77324;SDS011;66387;53.440;10.390;2023-07-08T06:29:47;4.80;;;3.65;;
77324;SDS011;66387;53.440;10.390;2023-07-08T06:32:13;4.40;;;3.17;;
77324;SDS011;66387;53.440;10.390;2023-07-08T06:34:38;3.43;;;2.73;;
77324;SDS011;66387;53.440;10.390;2023-07-08T06:37:03;6.57;;;3.83;;
77324;SDS011;66387;53.440;10.390;2023-07-08T06:39:29;4.78;;;3.38;;
77324;SDS011;66387;53.440;10.390;2023-07-08T06:41:54;6.97;;;2.93;;
77324;SDS011;66387;53.440;10.390;2023-07-08T06:44:19;6.33;;;3.10;;
77324;SDS011;66387;53.440;10.390;2023-07-08T06:46:44;4.13;;;2.90;;
77324;SDS011;66387;53.440;10.390;2023-07-08T06:49:10;3.20;;;2.90;;
77324;SDS011;66387;53.440;10.390;2023-07-08T06:51:36;4.47;;;2.83;;
77324;SDS011;66387;53.440;10.390;2023-07-08T06:54:02;4.10;;;3.05;;
77324;SDS011;66387;53.440;10.390;2023-07-08T06:56:30;3.83;;;2.88;;
77324;SDS011;66387;53.440;10.390;2023-07-08T06:58:55;4.55;;;3.15;;
77324;SDS011;66387;53.440;10.390;2023-07-08T07:01:21;3.50;;;3.20;;
77324;SDS011;66387;53.440;10.390;2023-07-08T07:03:46;4.50;;;2.50;;
77324;SDS011;66387;53.440;10.390;2023-07-08T07:06:11;5.50;;;3.57;;
77324;SDS011;66387;53.440;10.390;2023-07-08T07:08:37;5.03;;;3.10;;
77324;SDS011;66387;53.440;10.390;2023-07-08T07:11:02;5.23;;;3.30;;
77324;SDS011;66387;53.440;10.390;2023-07-08T07:13:28;9.50;;;3.45;;
77324;SDS011;66387;53.440;10.390;2023-07-08T07:15:53;4.07;;;2.67;;
77324;SDS011;66387;53.440;10.390;2023-07-08T07:18:18;5.27;;;2.90;;
77324;SDS011;66387;53.440;10.390;2023-07-08T07:20:48;4.67;;;3.00;;
77324;SDS011;66387;53.440;10.390;2023-07-08T07:23:15;4.95;;;3.45;;
77324;SDS011;66387;53.440;10.390;2023-07-08T07:25:40;3.60;;;2.75;;
77324;SDS011;66387;53.440;10.390;2023-07-08T07:28:06;3.00;;;2.70;;
77324;SDS011;66387;53.440;10.390;2023-07-08T07:30:31;4.55;;;2.95;;
77324;SDS011;66387;53.440;10.390;2023-07-08T07:33:00;3.42;;;3.10;;
77324;SDS011;66387;53.440;10.390;2023-07-08T07:35:25;4.05;;;3.22;;
77324;SDS011;66387;53.440;10.390;2023-07-08T07:37:51;5.50;;;2.80;;
77324;SDS011;66387;53.440;10.390;2023-07-08T07:40:16;4.70;;;3.20;;
77324;SDS011;66387;53.440;10.390;2023-07-08T07:42:42;3.90;;;3.17;;
77324;SDS011;66387;53.440;10.390;2023-07-08T07:45:09;4.50;;;3.30;;
77324;SDS011;66387;53.440;10.390;2023-07-08T07:47:35;4.32;;;2.95;;
77324;SDS011;66387;53.440;10.390;2023-07-08T07:50:01;3.45;;;2.75;;
77324;SDS011;66387;53.440;10.390;2023-07-08T07:52:27;3.25;;;2.90;;
77324;SDS011;66387;53.440;10.390;2023-07-08T07:54:53;3.73;;;2.80;;
77324;SDS011;66387;53.440;10.390;2023-07-08T07:57:20;5.38;;;3.60;;
77324;SDS011;66387;53.440;10.390;2023-07-08T07:59:46;3.85;;;2.72;;
77324;SDS011;66387;53.440;10.390;2023-07-08T08:02:13;4.55;;;2.80;;
77324;SDS011;66387;53.440;10.390;2023-07-08T08:04:39;3.22;;;2.83;;
77324;SDS011;66387;53.440;10.390;2023-07-08T08:07:04;4.43;;;3.60;;
77324;SDS011;66387;53.440;10.390;2023-07-08T08:09:29;6.35;;;3.20;;
77324;SDS011;66387;53.440;10.390;2023-07-08T08:11:55;5.30;;;3.10;;
77324;SDS011;66387;53.440;10.390;2023-07-08T08:14:20;6.83;;;3.13;;
77324;SDS011;66387;53.440;10.390;2023-07-08T08:16:45;4.15;;;3.13;;
77324;SDS011;66387;53.440;10.390;2023-07-08T08:19:11;3.83;;;3.38;;
77324;SDS011;66387;53.440;10.390;2023-07-08T08:21:36;3.77;;;2.83;;
77324;SDS011;66387;53.440;10.390;2023-07-08T08:24:01;3.07;;;2.77;;
77324;SDS011;66387;53.440;10.390;2023-07-08T08:26:27;4.10;;;3.00;;
77324;SDS011;66387;53.440;10.390;2023-07-08T08:28:53;5.03;;;3.35;;
77324;SDS011;66387;53.440;10.390;2023-07-08T08:31:18;3.25;;;2.75;;
77324;SDS011;66387;53.440;10.390;2023-07-08T08:33:44;5.60;;;3.13;;
77324;SDS011;66387;53.440;10.390;2023-07-08T08:36:09;3.90;;;3.37;;
77324;SDS011;66387;53.440;10.390;2023-07-08T08:38:34;3.50;;;2.97;;
77324;SDS011;66387;53.440;10.390;2023-07-08T08:41:03;3.57;;;2.80;;
77324;SDS011;66387;53.440;10.390;2023-07-08T08:43:35;4.53;;;2.92;;
77324;SDS011;66387;53.440;10.390;2023-07-08T08:48:40;3.85;;;3.00;;
77324;SDS011;66387;53.440;10.390;2023-07-08T08:51:15;3.08;;;2.75;;
77324;SDS011;66387;53.440;10.390;2023-07-08T08:53:41;4.25;;;3.40;;
77324;SDS011;66387;53.440;10.390;2023-07-08T08:56:13;3.90;;;3.10;;
77324;SDS011;66387;53.440;10.390;2023-07-08T08:58:45;4.57;;;2.60;;
77324;SDS011;66387;53.440;10.390;2023-07-08T09:01:32;3.22;;;2.92;;
77324;SDS011;66387;53.440;10.390;2023-07-08T09:03:59;3.45;;;2.90;;
77324;SDS011;66387;53.440;10.390;2023-07-08T09:06:29;3.97;;;3.00;;
77324;SDS011;66387;53.440;10.390;2023-07-08T09:08:57;4.88;;;2.67;;
77324;SDS011;66387;53.440;10.390;2023-07-08T09:16:57;3.60;;;2.80;;
77324;SDS011;66387;53.440;10.390;2023-07-08T09:19:52;5.65;;;3.50;;
77324;SDS011;66387;53.440;10.390;2023-07-08T09:25:35;4.28;;;3.17;;
77324;SDS011;66387;53.440;10.390;2023-07-08T09:28:07;4.30;;;3.58;;
77324;SDS011;66387;53.440;10.390;2023-07-08T09:30:33;3.85;;;3.30;;
77324;SDS011;66387;53.440;10.390;2023-07-08T09:33:01;5.37;;;2.93;;
77324;SDS011;66387;53.440;10.390;2023-07-08T09:35:29;3.80;;;3.35;;
77324;SDS011;66387;53.440;10.390;2023-07-08T09:38:06;3.78;;;3.20;;
77324;SDS011;66387;53.440;10.390;2023-07-08T09:40:33;4.35;;;3.35;;
77324;SDS011;66387;53.440;10.390;2023-07-08T09:43:01;3.53;;;2.97;;
77324;SDS011;66387;53.440;10.390;2023-07-08T09:45:28;3.35;;;3.05;;
77324;SDS011;66387;53.440;10.390;2023-07-08T09:47:55;3.53;;;3.00;;
77324;SDS011;66387;53.440;10.390;2023-07-08T09:50:25;3.67;;;2.78;;
77324;SDS011;66387;53.440;10.390;2023-07-08T09:52:54;3.63;;;2.75;;
77324;SDS011;66387;53.440;10.390;2023-07-08T09:55:22;8.55;;;3.53;;
77324;SDS011;66387;53.440;10.390;2023-07-08T09:57:49;5.63;;;3.20;;
77324;SDS011;66387;53.440;10.390;2023-07-08T10:00:17;5.22;;;3.65;;
77324;SDS011;66387;53.440;10.390;2023-07-08T10:03:02;4.82;;;3.00;;
77324;SDS011;66387;53.440;10.390;2023-07-08T10:05:32;3.88;;;3.47;;
77324;SDS011;66387;53.440;10.390;2023-07-08T10:08:10;3.70;;;2.70;;
77324;SDS011;66387;53.440;10.390;2023-07-08T10:10:39;3.53;;;2.72;;
77324;SDS011;66387;53.440;10.390;2023-07-08T10:13:14;3.38;;;3.00;;
77324;SDS011;66387;53.440;10.390;2023-07-08T10:15:46;4.10;;;3.15;;
77324;SDS011;66387;53.440;10.390;2023-07-08T10:18:17;3.63;;;3.03;;
77324;SDS011;66387;53.440;10.390;2023-07-08T10:21:05;5.55;;;3.60;;
77324;SDS011;66387;53.440;10.390;2023-07-08T10:23:51;4.43;;;3.25;;
77324;SDS011;66387;53.440;10.390;2023-07-08T11:16:41;4.78;;;3.30;;
77324;SDS011;66387;53.440;10.390;2023-07-08T11:19:11;5.85;;;3.50;;
77324;SDS011;66387;53.440;10.390;2023-07-08T11:21:44;4.82;;;3.78;;
77324;SDS011;66387;53.440;10.390;2023-07-08T11:24:21;4.18;;;3.17;;
77324;SDS011;66387;53.440;10.390;2023-07-08T11:26:58;4.30;;;3.08;;
77324;SDS011;66387;53.440;10.390;2023-07-08T11:29:42;5.80;;;3.45;;
77324;SDS011;66387;53.440;10.390;2023-07-08T11:32:14;4.38;;;3.05;;
77324;SDS011;66387;53.440;10.390;2023-07-08T11:34:43;3.35;;;3.05;;
77324;SDS011;66387;53.440;10.390;2023-07-08T11:37:11;3.70;;;2.95;;
77324;SDS011;66387;53.440;10.390;2023-07-08T11:39:39;3.90;;;3.03;;
77324;SDS011;66387;53.440;10.390;2023-07-08T11:42:13;3.83;;;3.33;;
77324;SDS011;66387;53.440;10.390;2023-07-08T11:44:47;4.05;;;3.40;;
77324;SDS011;66387;53.440;10.390;2023-07-08T11:47:37;4.40;;;3.53;;
77324;SDS011;66387;53.440;10.390;2023-07-08T11:50:23;4.72;;;3.00;;
77324;SDS011;66387;53.440;10.390;2023-07-08T11:52:55;3.28;;;2.97;;
77324;SDS011;66387;53.440;10.390;2023-07-08T11:55:26;3.80;;;2.95;;
77324;SDS011;66387;53.440;10.390;2023-07-08T11:58:00;3.42;;;3.13;;
77324;SDS011;66387;53.440;10.390;2023-07-08T12:00:25;4.93;;;3.30;;
77324;SDS011;66387;53.440;10.390;2023-07-08T12:02:56;5.25;;;3.30;;
77324;SDS011;66387;53.440;10.390;2023-07-08T12:05:35;3.70;;;3.28;;
77324;SDS011;66387;53.440;10.390;2023-07-08T12:08:11;3.72;;;2.97;;
77324;SDS011;66387;53.440;10.390;2023-07-08T12:10:39;6.00;;;3.30;;
77324;SDS011;66387;53.440;10.390;2023-07-08T12:13:11;4.35;;;3.03;;
77324;SDS011;66387;53.440;10.390;2023-07-08T12:15:38;4.97;;;3.15;;
77324;SDS011;66387;53.440;10.390;2023-07-08T12:18:06;3.72;;;3.42;;
77324;SDS011;66387;53.440;10.390;2023-07-08T12:20:37;3.97;;;3.20;;
77324;SDS011;66387;53.440;10.390;2023-07-08T12:23:23;3.55;;;3.25;;
77324;SDS011;66387;53.440;10.390;2023-07-08T12:25:51;3.60;;;3.30;;
77324;SDS011;66387;53.440;10.390;2023-07-08T12:28:17;4.05;;;3.40;;
77324;SDS011;66387;53.440;10.390;2023-07-08T12:30:44;6.15;;;3.28;;
77324;SDS011;66387;53.440;10.390;2023-07-08T12:33:14;4.72;;;3.50;;
77324;SDS011;66387;53.440;10.390;2023-07-08T12:35:43;3.70;;;3.13;;
77324;SDS011;66387;53.440;10.390;2023-07-08T12:38:22;3.97;;;3.05;;
77324;SDS011;66387;53.440;10.390;2023-07-08T12:40:53;3.42;;;2.88;;
77324;SDS011;66387;53.440;10.390;2023-07-08T12:43:26;3.55;;;3.05;;
77324;SDS011;66387;53.440;10.390;2023-07-08T12:45:51;3.97;;;3.55;;
77324;SDS011;66387;53.440;10.390;2023-07-08T12:48:16;5.47;;;3.20;;
77324;SDS011;66387;53.440;10.390;2023-07-08T12:50:41;6.47;;;3.50;;
77324;SDS011;66387;53.440;10.390;2023-07-08T12:53:07;4.33;;;3.47;;
77324;SDS011;66387;53.440;10.390;2023-07-08T12:55:36;3.67;;;3.20;;
77324;SDS011;66387;53.440;10.390;2023-07-08T12:58:03;4.75;;;3.03;;
77324;SDS011;66387;53.440;10.390;2023-07-08T13:00:30;3.28;;;2.92;;
77324;SDS011;66387;53.440;10.390;2023-07-08T13:03:00;4.82;;;3.60;;
77324;SDS011;66387;53.440;10.390;2023-07-08T13:05:31;4.72;;;3.45;;
77324;SDS011;66387;53.440;10.390;2023-07-08T13:07:56;4.18;;;3.47;;
77324;SDS011;66387;53.440;10.390;2023-07-08T13:10:24;4.55;;;3.40;;
77324;SDS011;66387;53.440;10.390;2023-07-08T13:12:52;3.45;;;3.15;;
77324;SDS011;66387;53.440;10.390;2023-07-08T13:15:22;3.78;;;3.20;;
77324;SDS011;66387;53.440;10.390;2023-07-08T13:17:52;4.20;;;3.30;;
77324;SDS011;66387;53.440;10.390;2023-07-08T13:20:18;4.13;;;3.63;;
77324;SDS011;66387;53.440;10.390;2023-07-08T13:22:48;4.25;;;3.40;;
77324;SDS011;66387;53.440;10.390;2023-07-08T13:25:20;3.90;;;3.55;;
77324;SDS011;66387;53.440;10.390;2023-07-08T13:27:56;4.55;;;3.70;;
77324;SDS011;66387;53.440;10.390;2023-07-08T13:32:56;3.55;;;3.20;;
77324;SDS011;66387;53.440;10.390;2023-07-08T13:38:02;4.05;;;3.20;;
77324;SDS011;66387;53.440;10.390;2023-07-08T13:40:28;4.60;;;3.88;;
77324;SDS011;66387;53.440;10.390;2023-07-08T13:42:55;4.20;;;3.80;;
77324;SDS011;66387;53.440;10.390;2023-07-08T13:45:31;3.97;;;3.55;;
77324;SDS011;66387;53.440;10.390;2023-07-08T13:48:41;4.47;;;3.53;;
77324;SDS011;66387;53.440;10.390;2023-07-08T13:51:03;5.88;;;3.63;;
77324;SDS011;66387;53.440;10.390;2023-07-08T13:53:48;4.43;;;3.42;;
77324;SDS011;66387;53.440;10.390;2023-07-08T13:56:27;4.55;;;3.30;;
77324;SDS011;66387;53.440;10.390;2023-07-08T13:59:04;3.65;;;3.28;;
77324;SDS011;66387;53.440;10.390;2023-07-08T14:01:33;4.85;;;3.40;;
77324;SDS011;66387;53.440;10.390;2023-07-08T14:04:00;5.22;;;3.70;;
77324;SDS011;66387;53.440;10.390;2023-07-08T14:06:28;4.57;;;3.78;;
77324;SDS011;66387;53.440;10.390;2023-07-08T14:08:57;4.03;;;3.63;;
77324;SDS011;66387;53.440;10.390;2023-07-08T14:11:23;4.07;;;3.50;;
77324;SDS011;66387;53.440;10.390;2023-07-08T14:13:48;4.73;;;3.70;;
77324;SDS011;66387;53.440;10.390;2023-07-08T14:16:21;5.85;;;4.10;;
77324;SDS011;66387;53.440;10.390;2023-07-08T14:18:49;4.35;;;3.42;;
77324;SDS011;66387;53.440;10.390;2023-07-08T14:21:15;4.20;;;3.50;;
77324;SDS011;66387;53.440;10.390;2023-07-08T14:23:41;4.05;;;3.65;;
77324;SDS011;66387;53.440;10.390;2023-07-08T14:26:10;4.47;;;3.53;;
77324;SDS011;66387;53.440;10.390;2023-07-08T14:28:36;4.47;;;3.80;;
77324;SDS011;66387;53.440;10.390;2023-07-08T14:31:01;4.23;;;3.83;;
77324;SDS011;66387;53.440;10.390;2023-07-08T14:33:26;4.77;;;2.97;;
77324;SDS011;66387;53.440;10.390;2023-07-08T14:35:52;4.20;;;3.50;;
77324;SDS011;66387;53.440;10.390;2023-07-08T14:38:17;6.13;;;3.70;;
77324;SDS011;66387;53.440;10.390;2023-07-08T14:40:42;4.20;;;3.80;;
77324;SDS011;66387;53.440;10.390;2023-07-08T14:46:04;7.30;;;3.92;;
77324;SDS011;66387;53.440;10.390;2023-07-08T14:48:30;4.30;;;3.53;;
77324;SDS011;66387;53.440;10.390;2023-07-08T14:53:22;5.40;;;3.40;;
77324;SDS011;66387;53.440;10.390;2023-07-08T14:55:48;5.43;;;3.60;;
77324;SDS011;66387;53.440;10.390;2023-07-08T14:58:26;4.30;;;3.72;;
77324;SDS011;66387;53.440;10.390;2023-07-08T15:00:57;4.88;;;4.38;;
77324;SDS011;66387;53.440;10.390;2023-07-08T15:03:24;3.97;;;3.40;;
77324;SDS011;66387;53.440;10.390;2023-07-08T15:05:51;5.32;;;3.70;;
77324;SDS011;66387;53.440;10.390;2023-07-08T15:08:16;4.65;;;3.67;;
77324;SDS011;66387;53.440;10.390;2023-07-08T15:10:44;4.40;;;3.70;;
77324;SDS011;66387;53.440;10.390;2023-07-08T15:13:12;4.22;;;3.83;;
77324;SDS011;66387;53.440;10.390;2023-07-08T15:15:37;5.35;;;4.00;;
77324;SDS011;66387;53.440;10.390;2023-07-08T15:18:14;6.60;;;3.45;;
77324;SDS011;66387;53.440;10.390;2023-07-08T15:20:41;4.68;;;3.60;;
77324;SDS011;66387;53.440;10.390;2023-07-08T15:23:07;5.30;;;3.92;;
77324;SDS011;66387;53.440;10.390;2023-07-08T15:28:00;4.50;;;4.00;;
77324;SDS011;66387;53.440;10.390;2023-07-08T15:30:27;5.70;;;3.53;;
77324;SDS011;66387;53.440;10.390;2023-07-08T15:32:54;6.63;;;3.85;;
77324;SDS011;66387;53.440;10.390;2023-07-08T15:35:21;5.25;;;3.67;;
77324;SDS011;66387;53.440;10.390;2023-07-08T15:37:49;3.88;;;3.58;;
77324;SDS011;66387;53.440;10.390;2023-07-08T15:40:16;4.13;;;3.67;;
77324;SDS011;66387;53.440;10.390;2023-07-08T15:42:44;4.13;;;3.72;;
77324;SDS011;66387;53.440;10.390;2023-07-08T15:47:50;6.80;;;3.53;;
77324;SDS011;66387;53.440;10.390;2023-07-08T15:50:16;4.75;;;3.92;;
77324;SDS011;66387;53.440;10.390;2023-07-08T15:52:43;6.15;;;3.95;;
77324;SDS011;66387;53.440;10.390;2023-07-08T15:55:09;4.40;;;4.00;;
77324;SDS011;66387;53.440;10.390;2023-07-08T15:57:37;4.43;;;3.58;;
77324;SDS011;66387;53.440;10.390;2023-07-08T16:00:12;4.38;;;3.38;;
77324;SDS011;66387;53.440;10.390;2023-07-08T16:02:45;6.07;;;3.85;;
77324;SDS011;66387;53.440;10.390;2023-07-08T16:05:11;3.53;;;3.10;;